Milford, Texas
Current Conditions -  °F | °C
As of 6:55 AM on Friday 19 Dec 2014 (Local Time) from KINJ Reporting Station
Light Rain Light Rain  
Wind Chill: 42°   Ceiling: 8000
Heat Index: 46°   Visibility: 7mi
Dew Point: 44°   Wind: 8mph
Humidity: 90%   Direction: 20°NNE
Pressure: 30.15"   Gusts: 16mph
Location:  32.12°N, 96.95°W
Report Text: KINJ 191255Z AUTO 02007G14KT 7SM -RA SCT005 SCT028 OVC080 08/07 A3015 RMK AO2 LTG DSNT SE P0003 T00800065
Loading
Personal Weather Stations






























Interactive Weather Map New forecast layout! Learn more

10-Day Weather Forecast

Advertisements
Track Severe Weather on mobile